Time;durP1;ratioP1;P1;durP2;ratioP2;P2;SDS_P1;SDS_P2;PMS_P1;PMS_P2;Temp;Humidity;BMP_temperature;BMP_pressure;BME280_temperature;BME280_humidity;BME280_pressure;Samples;Min_cycle;Max_cycle;Signal;HPM_P1;HPM_P2
2023/10/02 00:00:33;;;;;;;31.65;15.65;;;;;;;;;;2074993;28;20049;-55
2023/10/02 00:01:36;;;;;;;28.30;14.98;;;;;;;;;;2074484;28;20026;-55
2023/10/02 00:02:40;;;;;;;31.27;15.70;;;;;;;;;;2073978;28;20042;-55
2023/10/02 00:03:41;;;;;;;28.48;14.88;;;;;;;;;;2073720;28;20049;-54
2023/10/02 00:04:41;;;;;;;31.92;15.27;;;;;;;;;;2074347;28;20522;-55
2023/10/02 00:05:50;;;;;;;30.05;14.90;;;;;;;;;;2075148;28;20382;-54
2023/10/02 00:07:05;;;;;;;26.75;14.63;;;;;;;;;;2074440;28;20060;-54
2023/10/02 00:08:06;;;;;;;31.98;15.57;;;;;;;;;;2075044;28;20064;-54
2023/10/02 00:09:07;;;;;;;26.98;13.40;;;;;;;;;;2074311;28;20042;-54
2023/10/02 00:10:08;;;;;;;28.75;14.68;;;;;;;;;;2074352;28;20050;-54
2023/10/02 00:11:35;;;;;;;33.20;14.60;;;;;;;;;;2074899;28;20436;-54
2023/10/02 00:12:34;;;;;;;26.52;14.23;;;;;;;;;;2074814;28;20072;-54
2023/10/02 00:13:35;;;;;;;26.67;13.63;;;;;;;;;;2074986;28;20029;-54
2023/10/02 00:14:38;;;;;;;25.13;13.85;;;;;;;;;;2074558;28;20030;-55
2023/10/02 00:15:38;;;;;;;27.38;14.45;;;;;;;;;;2074209;28;20485;-55
2023/10/02 00:16:39;;;;;;;29.88;15.20;;;;;;;;;;2074819;28;20026;-54
2023/10/02 00:17:43;;;;;;;32.28;14.40;;;;;;;;;;2074773;28;20037;-54
2023/10/02 00:18:44;;;;;;;31.73;14.63;;;;;;;;;;2074924;28;20045;-54
2023/10/02 00:19:46;;;;;;;34.45;15.98;;;;;;;;;;2074207;28;20097;-55
2023/10/02 00:21:17;;;;;;;30.52;15.40;;;;;;;;;;2074721;28;20504;-54
2023/10/02 00:23:33;;;;;;;29.65;14.80;;;;;;;;;;2074940;28;20030;-55
2023/10/02 00:24:38;;;;;;;31.35;15.70;;;;;;;;;;2075021;28;20029;-55
2023/10/02 00:25:51;;;;;;;30.10;15.90;;;;;;;;;;2074540;28;20390;-54
2023/10/02 00:26:58;;;;;;;32.75;17.02;;;;;;;;;;2074120;28;20026;-54
2023/10/02 00:28:00;;;;;;;31.55;16.88;;;;;;;;;;2074684;28;20042;-54
2023/10/02 00:29:06;;;;;;;33.10;17.17;;;;;;;;;;2074495;28;20489;-54
2023/10/02 00:30:07;;;;;;;29.02;15.70;;;;;;;;;;2074478;28;20045;-54
2023/10/02 00:31:32;;;;;;;30.90;15.55;;;;;;;;;;2074439;28;20057;-54
2023/10/02 00:32:34;;;;;;;28.88;14.98;;;;;;;;;;2074583;28;20030;-54
2023/10/02 00:33:35;;;;;;;33.38;16.50;;;;;;;;;;2073786;28;20501;-54
2023/10/02 00:34:36;;;;;;;31.80;16.45;;;;;;;;;;2065980;28;20045;-54
2023/10/02 00:35:50;;;;;;;34.58;16.15;;;;;;;;;;2074098;28;20042;-55
2023/10/02 00:36:53;;;;;;;34.83;17.27;;;;;;;;;;2067966;28;20046;-54
2023/10/02 00:37:54;;;;;;;34.05;16.00;;;;;;;;;;2073460;28;20050;-54
2023/10/02 00:38:54;;;;;;;28.27;15.35;;;;;;;;;;2073976;28;20486;-54
2023/10/02 00:39:55;;;;;;;33.63;17.30;;;;;;;;;;2066015;28;20069;-54
2023/10/02 00:40:56;;;;;;;32.63;16.48;;;;;;;;;;2074048;28;20074;-54
2023/10/02 00:42:16;;;;;;;31.17;16.58;;;;;;;;;;2073288;28;20133;-54
2023/10/02 00:43:35;;;;;;;33.40;17.08;;;;;;;;;;2074606;28;20041;-54
2023/10/02 00:45:59;;;;;;;30.90;16.95;;;;;;;;;;2074311;28;19921;-56
2023/10/02 00:47:00;;;;;;;32.25;16.60;;;;;;;;;;2073246;28;20045;-54
2023/10/02 00:49:35;;;;;;;36.13;17.05;;;;;;;;;;2074906;28;20041;-55
2023/10/02 00:50:48;;;;;;;36.08;17.50;;;;;;;;;;2074345;28;20045;-54
2023/10/02 00:52:00;;;;;;;32.38;16.27;;;;;;;;;;2073932;28;20044;-54
2023/10/02 00:53:04;;;;;;;34.50;17.17;;;;;;;;;;2073684;28;20415;-56
2023/10/02 00:54:23;;;;;;;30.15;16.25;;;;;;;;;;2073297;28;20042;-54
2023/10/02 00:55:45;;;;;;;32.03;15.98;;;;;;;;;;2074585;28;20042;-54
2023/10/02 00:56:47;;;;;;;30.35;16.48;;;;;;;;;;2073972;28;20053;-54
2023/10/02 00:57:50;;;;;;;29.50;15.95;;;;;;;;;;2074109;28;20046;-54
2023/10/02 00:58:55;;;;;;;29.08;16.58;;;;;;;;;;2073899;28;20421;-54
2023/10/02 00:59:59;;;;;;;35.60;17.30;;;;;;;;;;2073700;28;20037;-54
2023/10/02 01:01:01;;;;;;;30.55;16.27;;;;;;;;;;2074817;28;20034;-54
2023/10/02 01:02:05;;;;;;;34.55;15.82;;;;;;;;;;2065690;28;20057;-54
2023/10/02 01:03:09;;;;;;;30.58;16.75;;;;;;;;;;2058458;28;20038;-54
2023/10/02 01:04:10;;;;;;;31.33;16.95;;;;;;;;;;2073766;28;20498;-54
2023/10/02 01:05:14;;;;;;;30.63;15.35;;;;;;;;;;2074562;28;20116;-54
2023/10/02 01:06:16;;;;;;;28.83;15.25;;;;;;;;;;2073568;28;20068;-55
2023/10/02 01:07:17;;;;;;;32.20;15.77;;;;;;;;;;2065499;28;20097;-54
2023/10/02 01:08:24;;;;;;;29.42;16.30;;;;;;;;;;2073955;28;20049;-54
2023/10/02 01:09:26;;;;;;;31.05;16.35;;;;;;;;;;2072962;28;20045;-55
2023/10/02 01:10:29;;;;;;;31.67;16.58;;;;;;;;;;2073454;28;20438;-55
2023/10/02 01:11:30;;;;;;;30.40;16.63;;;;;;;;;;2073370;28;20042;-54
2023/10/02 01:12:43;;;;;;;30.73;16.02;;;;;;;;;;2073838;28;20462;-55
2023/10/02 01:13:44;;;;;;;30.60;15.38;;;;;;;;;;2074046;28;20042;-54
2023/10/02 01:14:50;;;;;;;29.13;16.52;;;;;;;;;;2072879;28;20042;-54
2023/10/02 01:15:51;;;;;;;34.17;16.88;;;;;;;;;;2073073;28;20053;-54
2023/10/02 01:16:54;;;;;;;29.48;15.32;;;;;;;;;;2074621;28;20038;-54
2023/10/02 01:18:08;;;;;;;30.13;16.02;;;;;;;;;;2072956;28;20050;-54
2023/10/02 01:19:11;;;;;;;30.90;16.33;;;;;;;;;;2073871;28;20048;-54
2023/10/02 01:20:20;;;;;;;31.27;15.48;;;;;;;;;;2074069;28;20038;-54
2023/10/02 01:21:24;;;;;;;32.35;17.33;;;;;;;;;;2066443;28;20050;-54
2023/10/02 01:22:28;;;;;;;33.20;16.85;;;;;;;;;;2051034;28;20046;-54
2023/10/02 01:23:31;;;;;;;29.85;16.25;;;;;;;;;;2058466;28;20050;-54
2023/10/02 01:24:32;;;;;;;33.72;16.58;;;;;;;;;;2073730;28;20489;-54
2023/10/02 01:25:36;;;;;;;31.55;16.80;;;;;;;;;;2073612;28;20529;-54
2023/10/02 01:26:37;;;;;;;29.70;16.02;;;;;;;;;;2058100;28;20049;-54
2023/10/02 01:27:41;;;;;;;32.22;17.70;;;;;;;;;;2065910;28;20046;-54
2023/10/02 01:28:51;;;;;;;29.25;15.88;;;;;;;;;;2073716;28;20483;-54
2023/10/02 01:30:14;;;;;;;30.20;16.50;;;;;;;;;;2073862;28;20053;-54
2023/10/02 01:31:31;;;;;;;31.30;16.50;;;;;;;;;;2074211;28;20378;-54
2023/10/02 01:32:31;;;;;;;;;;;;;;;;;;2074375;28;20042;-54
2023/10/02 01:33:32;;;;;;;34.55;16.95;;;;;;;;;;2073089;28;19910;-54
2023/10/02 01:34:33;;;;;;;32.35;17.15;;;;;;;;;;2074150;28;20034;-54
2023/10/02 01:35:36;;;;;;;27.83;16.35;;;;;;;;;;2073833;28;20046;-55
2023/10/02 01:36:41;;;;;;;31.30;16.45;;;;;;;;;;2073735;28;20038;-54
2023/10/02 01:37:46;;;;;;;29.35;16.73;;;;;;;;;;2065429;28;20034;-54
2023/10/02 01:38:47;;;;;;;35.63;18.30;;;;;;;;;;2074008;28;20481;-55
2023/10/02 01:39:49;;;;;;;35.13;18.23;;;;;;;;;;2073790;28;20085;-55
2023/10/02 01:40:54;;;;;;;33.65;16.67;;;;;;;;;;2074184;28;20034;-54
2023/10/02 01:41:54;;;;;;;37.63;17.20;;;;;;;;;;2073898;28;20049;-54
2023/10/02 01:43:11;;;;;;;35.90;16.50;;;;;;;;;;2072729;28;20053;-55
2023/10/02 01:44:12;;;;;;;32.20;16.02;;;;;;;;;;2067510;28;20038;-54
2023/10/02 01:45:13;;;;;;;33.42;16.42;;;;;;;;;;2072619;28;20042;-54
2023/10/02 01:46:17;;;;;;;35.03;17.88;;;;;;;;;;2073580;28;20053;-54
2023/10/02 01:47:18;;;;;;;35.50;17.70;;;;;;;;;;2073720;28;20042;-54
2023/10/02 01:48:37;;;;;;;32.05;18.23;;;;;;;;;;2074131;28;20378;-54
2023/10/02 01:49:38;;;;;;;33.53;17.40;;;;;;;;;;2073727;28;20450;-54
2023/10/02 01:50:42;;;;;;;35.22;18.70;;;;;;;;;;2072880;28;20057;-54
2023/10/02 01:51:43;;;;;;;35.33;18.23;;;;;;;;;;2074027;28;20029;-54
2023/10/02 01:52:45;;;;;;;34.45;17.45;;;;;;;;;;2074073;28;20030;-54
2023/10/02 01:53:49;;;;;;;37.50;19.38;;;;;;;;;;2073741;28;20053;-54
2023/10/02 01:54:51;;;;;;;32.70;19.05;;;;;;;;;;2073444;28;20042;-54
2023/10/02 01:55:52;;;;;;;33.92;18.15;;;;;;;;;;2073741;28;20065;-54
2023/10/02 01:56:55;;;;;;;39.20;19.27;;;;;;;;;;2074097;28;20030;-54
2023/10/02 01:57:55;;;;;;;34.28;17.38;;;;;;;;;;2072895;28;20052;-54
2023/10/02 01:59:14;;;;;;;32.60;18.15;;;;;;;;;;2065293;28;20520;-54
2023/10/02 02:00:15;;;;;;;29.88;16.67;;;;;;;;;;2073394;28;20486;-54
2023/10/02 02:01:16;;;;;;;35.30;17.23;;;;;;;;;;2073030;28;20042;-54
2023/10/02 02:02:19;;;;;;;31.10;16.58;;;;;;;;;;2064380;28;20054;-54
2023/10/02 02:03:20;;;;;;;30.33;16.75;;;;;;;;;;2065467;28;20413;-54
2023/10/02 02:04:25;;;;;;;31.13;16.92;;;;;;;;;;2073084;28;20050;-54
2023/10/02 02:05:30;;;;;;;33.40;16.88;;;;;;;;;;2073837;28;20042;-55
2023/10/02 02:06:31;;;;;;;33.88;17.33;;;;;;;;;;2073963;28;20049;-54
2023/10/02 02:07:35;;;;;;;34.83;16.80;;;;;;;;;;2072404;28;20038;-54
2023/10/02 02:08:36;;;;;;;36.22;18.17;;;;;;;;;;2065419;28;20042;-54
2023/10/02 02:09:37;;;;;;;35.85;17.58;;;;;;;;;;2072550;28;20041;-54
2023/10/02 02:10:39;;;;;;;33.85;18.38;;;;;;;;;;2073718;28;20045;-54
2023/10/02 02:11:41;;;;;;;32.60;17.23;;;;;;;;;;2072813;28;20034;-54
2023/10/02 02:12:44;;;;;;;35.88;16.25;;;;;;;;;;2073198;28;20037;-54
2023/10/02 02:13:46;;;;;;;34.88;17.23;;;;;;;;;;2073441;28;20484;-54
2023/10/02 02:14:50;;;;;;;36.72;17.02;;;;;;;;;;2073632;28;20033;-54
2023/10/02 02:15:51;;;;;;;32.78;17.70;;;;;;;;;;2073266;28;20065;-54
2023/10/02 02:16:52;;;;;;;34.78;17.52;;;;;;;;;;2072803;28;20053;-55
2023/10/02 02:17:52;;;;;;;34.72;18.55;;;;;;;;;;2073763;28;20061;-54
2023/10/02 02:18:54;;;;;;;34.28;18.23;;;;;;;;;;2073198;28;20038;-54
2023/10/02 02:19:59;;;;;;;37.05;17.33;;;;;;;;;;2065280;28;20445;-55
2023/10/02 02:21:02;;;;;;;38.35;18.27;;;;;;;;;;2073161;28;20045;-54
2023/10/02 02:22:03;;;;;;;36.22;17.92;;;;;;;;;;2073397;28;20040;-54
2023/10/02 02:23:07;;;;;;;35.78;16.88;;;;;;;;;;2073408;28;20111;-54
2023/10/02 02:24:08;;;;;;;30.55;16.98;;;;;;;;;;2057257;28;20046;-55
2023/10/02 02:25:08;;;;;;;33.72;18.00;;;;;;;;;;2065314;28;20693;-54
2023/10/02 02:26:09;;;;;;;33.42;18.08;;;;;;;;;;2073874;28;20054;-54
2023/10/02 02:27:10;;;;;;;33.45;17.90;;;;;;;;;;2072492;28;20046;-54
2023/10/02 02:28:11;;;;;;;34.05;18.85;;;;;;;;;;2073450;28;20057;-54
2023/10/02 02:29:24;;;;;;;29.52;16.05;;;;;;;;;;2072805;28;20080;-55
2023/10/02 02:30:24;;;;;;;32.80;17.58;;;;;;;;;;2073858;28;20037;-54
2023/10/02 02:31:31;;;;;;;33.42;17.60;;;;;;;;;;2073238;28;20037;-54
2023/10/02 02:32:52;;;;;;;31.67;17.00;;;;;;;;;;2072803;28;20050;-54
2023/10/02 02:33:53;;;;;;;33.15;17.23;;;;;;;;;;2073251;28;20034;-55
2023/10/02 02:35:00;;;;;;;34.22;18.33;;;;;;;;;;2072572;28;20046;-55
2023/10/02 02:36:05;;;;;;;30.63;16.83;;;;;;;;;;2074135;28;20038;-55
2023/10/02 02:37:07;;;;;;;34.97;17.77;;;;;;;;;;2073556;28;20048;-54
2023/10/02 02:38:14;;;;;;;35.65;17.75;;;;;;;;;;2073648;28;20042;-54
2023/10/02 02:39:17;;;;;;;33.03;16.85;;;;;;;;;;2065085;28;20050;-54
2023/10/02 02:40:29;;;;;;;36.92;16.58;;;;;;;;;;2065465;28;20054;-55
2023/10/02 02:41:30;;;;;;;35.97;17.38;;;;;;;;;;2073430;28;20501;-55
2023/10/02 02:42:32;;;;;;;35.05;18.17;;;;;;;;;;2073184;28;20048;-55
2023/10/02 02:43:33;;;;;;;34.25;16.65;;;;;;;;;;2073873;28;20033;-55
2023/10/02 02:44:39;;;;;;;35.53;17.13;;;;;;;;;;2073041;28;20050;-55
2023/10/02 02:45:41;;;;;;;33.50;17.27;;;;;;;;;;2073726;28;20050;-55
2023/10/02 02:46:53;;;;;;;36.78;17.50;;;;;;;;;;2073242;28;20038;-55
2023/10/02 02:47:59;;;;;;;33.58;17.40;;;;;;;;;;2065727;28;20047;-54
2023/10/02 02:49:00;;;;;;;33.22;17.52;;;;;;;;;;2072435;28;20050;-54
2023/10/02 02:50:00;;;;;;;33.80;16.88;;;;;;;;;;2073995;28;20050;-54
2023/10/02 02:51:14;;;;;;;38.15;18.60;;;;;;;;;;2075538;28;20034;-54
2023/10/02 02:52:16;;;;;;;34.85;17.38;;;;;;;;;;2075053;28;20073;-55
2023/10/02 02:53:21;;;;;;;33.70;17.15;;;;;;;;;;2074136;28;20049;-54
2023/10/02 02:54:25;;;;;;;34.47;18.10;;;;;;;;;;2075349;28;20038;-54
2023/10/02 02:55:26;;;;;;;32.80;17.65;;;;;;;;;;2075205;28;20045;-55
2023/10/02 02:56:28;;;;;;;34.63;18.05;;;;;;;;;;2075402;28;20029;-54
2023/10/02 02:57:31;;;;;;;40.40;18.08;;;;;;;;;;2074252;28;20046;-54
2023/10/02 02:58:33;;;;;;;31.15;17.08;;;;;;;;;;2074602;28;20045;-55
2023/10/02 02:59:38;;;;;;;32.55;16.75;;;;;;;;;;2074154;28;20037;-55
2023/10/02 03:00:42;;;;;;;37.33;18.05;;;;;;;;;;2074277;28;20057;-54
2023/10/02 03:01:44;;;;;;;33.13;17.35;;;;;;;;;;2073944;28;20038;-54
2023/10/02 03:02:46;;;;;;;32.00;17.58;;;;;;;;;;2074301;28;20049;-54
2023/10/02 03:03:46;;;;;;;36.08;18.30;;;;;;;;;;2075517;28;20042;-54
2023/10/02 03:04:48;;;;;;;34.15;18.20;;;;;;;;;;2075075;28;20124;-54
2023/10/02 03:05:52;;;;;;;33.42;18.15;;;;;;;;;;2075450;28;20084;-54
2023/10/02 03:07:08;;;;;;;41.83;17.98;;;;;;;;;;2075208;28;20169;-54
2023/10/02 03:08:11;;;;;;;34.47;17.45;;;;;;;;;;2075447;28;20046;-54
2023/10/02 03:09:23;;;;;;;35.42;17.13;;;;;;;;;;2075297;28;20497;-54
2023/10/02 03:10:24;;;;;;;37.92;18.45;;;;;;;;;;2074920;28;20406;-54
2023/10/02 03:11:28;;;;;;;32.60;17.17;;;;;;;;;;2075581;28;20046;-55
2023/10/02 03:12:29;;;;;;;33.47;18.25;;;;;;;;;;2075480;28;20041;-56
2023/10/02 03:13:31;;;;;;;38.63;18.65;;;;;;;;;;2076282;28;20061;-55
2023/10/02 03:14:35;;;;;;;36.83;18.52;;;;;;;;;;2075511;28;20504;-55
2023/10/02 03:15:48;;;;;;;32.13;16.88;;;;;;;;;;2076051;28;20046;-58
2023/10/02 03:16:51;;;;;;;33.05;15.85;;;;;;;;;;2076584;28;20049;-54
2023/10/02 03:17:52;;;;;;;34.42;17.75;;;;;;;;;;2075704;28;20030;-55
2023/10/02 03:18:54;;;;;;;34.58;18.08;;;;;;;;;;2074825;28;20037;-55
2023/10/02 03:19:58;;;;;;;33.55;17.00;;;;;;;;;;2075921;28;20471;-56
2023/10/02 03:21:00;;;;;;;36.90;18.02;;;;;;;;;;2075097;28;20046;-54
2023/10/02 03:22:02;;;;;;;33.80;15.80;;;;;;;;;;2075406;28;20044;-54
2023/10/02 03:23:11;;;;;;;31.92;15.55;;;;;;;;;;2074942;28;20054;-54
2023/10/02 03:24:15;;;;;;;33.20;16.70;;;;;;;;;;2075416;28;20065;-54
2023/10/02 03:27:36;;;;;;;38.92;18.90;;;;;;;;;;2074889;28;20049;-54
2023/10/02 03:28:39;;;;;;;43.22;18.88;;;;;;;;;;2075269;28;20029;-54
2023/10/02 03:29:40;;;;;;;37.03;19.23;;;;;;;;;;2075418;28;20414;-55
2023/10/02 03:30:43;;;;;;;37.70;18.08;;;;;;;;;;2075362;28;20030;-54
2023/10/02 03:31:44;;;;;;;37.58;19.38;;;;;;;;;;2074905;28;20090;-54
2023/10/02 03:32:45;;;;;;;37.25;18.30;;;;;;;;;;2074547;28;20042;-55
2023/10/02 03:33:45;;;;;;;36.75;19.35;;;;;;;;;;2074239;28;20049;-54
2023/10/02 03:35:02;;;;;;;36.83;19.88;;;;;;;;;;2074014;28;20049;-54
2023/10/02 03:36:09;;;;;;;40.33;19.90;;;;;;;;;;2075457;28;20489;-54
2023/10/02 03:38:14;;;;;;;39.53;19.38;;;;;;;;;;2075197;28;20038;-54
2023/10/02 03:39:23;;;;;;;38.15;19.95;;;;;;;;;;2075106;28;20034;-54
2023/10/02 03:40:25;;;;;;;40.65;19.45;;;;;;;;;;2075040;28;20401;-54
2023/10/02 03:41:44;;;;;;;41.05;18.92;;;;;;;;;;2074769;28;20057;-54
2023/10/02 03:42:47;;;;;;;38.08;19.58;;;;;;;;;;2075115;28;20046;-54
2023/10/02 03:43:49;;;;;;;41.42;18.90;;;;;;;;;;2074998;28;20037;-55
2023/10/02 03:44:50;;;;;;;41.72;20.58;;;;;;;;;;2074832;28;20046;-55
2023/10/02 03:45:51;;;;;;;41.72;19.23;;;;;;;;;;2075277;28;20053;-54
2023/10/02 03:46:53;;;;;;;40.60;19.48;;;;;;;;;;2074791;28;20042;-54
2023/10/02 03:48:02;;;;;;;36.65;19.25;;;;;;;;;;2074958;28;20045;-54
2023/10/02 03:49:04;;;;;;;40.30;20.58;;;;;;;;;;2075213;28;20466;-54
2023/10/02 03:50:10;;;;;;;38.78;19.45;;;;;;;;;;2074492;28;20046;-54
2023/10/02 03:51:10;;;;;;;41.63;18.90;;;;;;;;;;2074864;28;20054;-54
2023/10/02 03:52:16;;;;;;;36.25;19.35;;;;;;;;;;2075490;28;20080;-54
2023/10/02 03:53:28;;;;;;;43.72;18.60;;;;;;;;;;2075140;28;20038;-54
2023/10/02 03:54:29;;;;;;;35.80;18.30;;;;;;;;;;2075466;28;20037;-55
2023/10/02 03:55:33;;;;;;;36.85;17.90;;;;;;;;;;2074736;28;20042;-54
2023/10/02 03:56:36;;;;;;;38.40;19.67;;;;;;;;;;2075027;28;20513;-54
2023/10/02 03:57:47;;;;;;;40.03;18.60;;;;;;;;;;2074765;28;20045;-54
2023/10/02 03:58:48;;;;;;;39.58;18.45;;;;;;;;;;2074906;28;20057;-54
2023/10/02 03:59:54;;;;;;;37.90;18.02;;;;;;;;;;2074564;28;20049;-54
2023/10/02 04:00:55;;;;;;;43.28;20.33;;;;;;;;;;2074620;28;20048;-54
2023/10/02 04:03:15;;;;;;;38.58;17.40;;;;;;;;;;2075147;28;20042;-54
2023/10/02 04:04:23;;;;;;;43.60;19.08;;;;;;;;;;2074458;28;20068;-54
2023/10/02 04:05:34;;;;;;;34.60;17.30;;;;;;;;;;2074980;28;20050;-55
2023/10/02 04:06:35;;;;;;;36.20;17.95;;;;;;;;;;2074711;28;20048;-54
2023/10/02 04:07:36;;;;;;;43.92;19.55;;;;;;;;;;2074501;28;20041;-54
2023/10/02 04:08:37;;;;;;;38.15;18.55;;;;;;;;;;2074839;28;20377;-55
2023/10/02 04:09:37;;;;;;;40.33;19.05;;;;;;;;;;2074939;28;20519;-54
2023/10/02 04:10:57;;;;;;;39.65;18.30;;;;;;;;;;2074026;28;20108;-54
2023/10/02 04:11:57;;;;;;;36.08;18.00;;;;;;;;;;2074624;28;20042;-54
2023/10/02 04:13:00;;;;;;;36.38;17.38;;;;;;;;;;2074739;28;20065;-54
2023/10/02 04:14:01;;;;;;;35.50;17.05;;;;;;;;;;2074777;28;20465;-54
2023/10/02 04:15:11;;;;;;;35.58;17.63;;;;;;;;;;2073257;28;20042;-55
2023/10/02 04:16:30;;;;;;;37.53;18.05;;;;;;;;;;2072856;28;20049;-54
2023/10/02 04:17:34;;;;;;;34.83;17.10;;;;;;;;;;2075024;28;20057;-54
2023/10/02 04:18:49;;;;;;;36.40;17.88;;;;;;;;;;2074976;28;20045;-55
2023/10/02 04:19:51;;;;;;;35.28;17.55;;;;;;;;;;2074953;28;20046;-54
2023/10/02 04:21:01;;;;;;;38.80;17.85;;;;;;;;;;2074360;28;20041;-54
2023/10/02 04:22:06;;;;;;;35.80;17.15;;;;;;;;;;2074484;28;20105;-54
2023/10/02 04:23:21;;;;;;;37.63;18.15;;;;;;;;;;2074386;28;20038;-54
2023/10/02 04:24:24;;;;;;;37.25;18.33;;;;;;;;;;2074965;28;20046;-55
2023/10/02 04:25:25;;;;;;;33.15;16.77;;;;;;;;;;2074705;28;20034;-54
2023/10/02 04:26:28;;;;;;;33.35;16.55;;;;;;;;;;2074764;28;20033;-54
2023/10/02 04:28:55;;;;;;;38.72;17.92;;;;;;;;;;2075063;28;20034;-55
2023/10/02 04:31:20;;;;;;;40.45;17.73;;;;;;;;;;2075177;28;20102;-54
2023/10/02 04:32:24;;;;;;;32.42;17.27;;;;;;;;;;2074924;28;20474;-54
2023/10/02 04:33:25;;;;;;;36.97;19.02;;;;;;;;;;2074681;28;20045;-54
2023/10/02 04:34:29;;;;;;;37.85;18.38;;;;;;;;;;2074528;28;20053;-55
2023/10/02 04:35:45;;;;;;;37.33;17.77;;;;;;;;;;2074958;28;20029;-55
2023/10/02 04:36:46;;;;;;;38.30;17.15;;;;;;;;;;2074957;28;20030;-55
2023/10/02 04:37:48;;;;;;;42.75;17.77;;;;;;;;;;2074840;28;20026;-55
2023/10/02 04:38:49;;;;;;;42.17;18.17;;;;;;;;;;2074833;28;20037;-55
2023/10/02 04:40:57;;;;;;;38.78;17.80;;;;;;;;;;2074380;28;20042;-54
2023/10/02 04:42:19;;;;;;;38.45;17.55;;;;;;;;;;2074661;28;20034;-54
2023/10/02 04:43:19;;;;;;;37.65;16.75;;;;;;;;;;2074337;28;20038;-54
2023/10/02 04:44:20;;;;;;;35.67;18.00;;;;;;;;;;2074297;28;20086;-54
2023/10/02 04:45:21;;;;;;;36.60;18.80;;;;;;;;;;2074600;28;20049;-54
2023/10/02 04:46:24;;;;;;;39.22;18.20;;;;;;;;;;2074293;28;20050;-54
2023/10/02 04:47:26;;;;;;;36.38;17.95;;;;;;;;;;2074527;28;20398;-55
2023/10/02 04:48:38;;;;;;;35.25;17.92;;;;;;;;;;2074678;28;20133;-55
2023/10/02 04:50:04;;;;;;;40.03;17.52;;;;;;;;;;2074683;28;20030;-54
2023/10/02 04:51:03;;;;;;;43.42;18.02;;;;;;;;;;2074564;28;20032;-54
2023/10/02 04:52:04;;;;;;;38.63;17.80;;;;;;;;;;2073674;28;20041;-54
2023/10/02 04:54:17;;;;;;;38.70;17.83;;;;;;;;;;2074693;28;20037;-54
2023/10/02 04:55:24;;;;;;;40.20;19.05;;;;;;;;;;2074653;28;20037;-54
2023/10/02 04:56:25;;;;;;;39.28;18.20;;;;;;;;;;2074521;28;20045;-54
2023/10/02 04:57:25;;;;;;;42.88;17.33;;;;;;;;;;2074449;28;20092;-55
2023/10/02 04:58:28;;;;;;;40.80;18.80;;;;;;;;;;2073645;28;20111;-55
2023/10/02 04:59:51;;;;;;;38.60;17.80;;;;;;;;;;2065275;28;20046;-55
2023/10/02 05:02:21;;;;;;;41.67;18.08;;;;;;;;;;2074263;28;20054;-55
2023/10/02 05:03:25;;;;;;;40.53;18.15;;;;;;;;;;2074702;28;20034;-54
2023/10/02 05:04:25;;;;;;;38.85;16.90;;;;;;;;;;2074578;28;20030;-54
2023/10/02 05:05:34;;;;;;;41.20;18.00;;;;;;;;;;2073849;28;20046;-55
2023/10/02 05:06:54;;;;;;;34.03;16.80;;;;;;;;;;2074790;28;20034;-55
2023/10/02 05:07:56;;;;;;;36.03;18.40;;;;;;;;;;2074598;28;20441;-54
2023/10/02 05:09:57;;;;;;;37.85;18.27;;;;;;;;;;2074669;28;20049;-54
2023/10/02 05:11:05;;;;;;;37.55;17.65;;;;;;;;;;2074471;28;20029;-55
2023/10/02 05:12:06;;;;;;;41.33;18.73;;;;;;;;;;2074275;28;20038;-55
2023/10/02 05:13:08;;;;;;;40.13;17.90;;;;;;;;;;2074257;28;20407;-54
2023/10/02 05:14:09;;;;;;;37.08;17.83;;;;;;;;;;2073834;28;20048;-54
2023/10/02 05:15:20;;;;;;;41.90;18.98;;;;;;;;;;2073860;28;20073;-54
2023/10/02 05:16:27;;;;;;;41.63;18.08;;;;;;;;;;2074248;28;20053;-54
2023/10/02 05:17:46;;;;;;;38.53;18.42;;;;;;;;;;2074378;28;20041;-54
2023/10/02 05:18:49;;;;;;;38.70;18.50;;;;;;;;;;2074447;28;20049;-54
2023/10/02 05:20:07;;;;;;;34.53;17.25;;;;;;;;;;2074502;28;20057;-55
2023/10/02 05:21:09;;;;;;;37.30;17.10;;;;;;;;;;2074223;28;20053;-54
2023/10/02 05:22:10;;;;;;;38.47;17.98;;;;;;;;;;2074458;28;20038;-54
2023/10/02 05:23:10;;;;;;;39.05;17.75;;;;;;;;;;2074343;28;20050;-55
2023/10/02 05:24:11;;;;;;;37.15;17.38;;;;;;;;;;2074284;28;20056;-54
2023/10/02 05:25:18;;;;;;;38.42;18.27;;;;;;;;;;2074069;28;20401;-54
2023/10/02 05:26:32;;;;;;;38.97;18.25;;;;;;;;;;2073324;28;20042;-54
2023/10/02 05:27:35;;;;;;;39.42;17.70;;;;;;;;;;2073302;28;20053;-54
2023/10/02 05:28:45;;;;;;;35.95;16.77;;;;;;;;;;2073881;28;20045;-55
2023/10/02 05:29:46;;;;;;;38.70;18.10;;;;;;;;;;2074380;28;20036;-54
2023/10/02 05:30:46;;;;;;;40.25;18.20;;;;;;;;;;2074745;28;20037;-55
2023/10/02 05:31:48;;;;;;;38.08;18.08;;;;;;;;;;2073762;28;20394;-55
2023/10/02 05:32:51;;;;;;;34.80;16.98;;;;;;;;;;2074274;28;20029;-55
2023/10/02 05:33:52;;;;;;;39.75;18.08;;;;;;;;;;2074255;28;20042;-55
2023/10/02 05:35:03;;;;;;;36.30;17.17;;;;;;;;;;2074506;28;20038;-55
2023/10/02 05:36:05;;;;;;;39.08;17.35;;;;;;;;;;2074465;28;20575;-55
2023/10/02 05:38:12;;;;;;;36.22;16.63;;;;;;;;;;2074246;28;20056;-55
2023/10/02 05:39:28;;;;;;;36.85;16.20;;;;;;;;;;2073968;28;20046;-55
2023/10/02 05:40:38;;;;;;;38.08;16.58;;;;;;;;;;2074125;28;20068;-55
2023/10/02 05:41:44;;;;;;;34.88;15.93;;;;;;;;;;2074190;28;20041;-54
2023/10/02 05:44:01;;;;;;;39.08;16.58;;;;;;;;;;2074631;28;20438;-55
2023/10/02 05:45:02;;;;;;;33.50;15.43;;;;;;;;;;2073473;28;20046;-55
2023/10/02 05:46:06;;;;;;;38.05;16.98;;;;;;;;;;2072904;28;20053;-55
2023/10/02 05:47:07;;;;;;;37.08;16.30;;;;;;;;;;2065633;28;20499;-55
2023/10/02 05:48:08;;;;;;;39.63;17.45;;;;;;;;;;2073044;28;20050;-55
2023/10/02 05:49:10;;;;;;;36.13;16.10;;;;;;;;;;2074152;28;20046;-56
2023/10/02 05:50:11;;;;;;;37.08;17.00;;;;;;;;;;2073769;28;20049;-55
2023/10/02 05:51:15;;;;;;;37.80;17.35;;;;;;;;;;2074515;28;20069;-55
2023/10/02 05:52:18;;;;;;;36.25;17.15;;;;;;;;;;2073761;28;20042;-55
2023/10/02 05:53:19;;;;;;;35.28;16.05;;;;;;;;;;2073576;28;20053;-55
2023/10/02 05:54:23;;;;;;;39.38;16.60;;;;;;;;;;2073142;28;20042;-56
2023/10/02 05:55:25;;;;;;;38.83;16.98;;;;;;;;;;2073442;28;20485;-56
2023/10/02 05:56:27;;;;;;;37.15;16.02;;;;;;;;;;2074053;28;20054;-55
2023/10/02 05:57:31;;;;;;;35.30;16.73;;;;;;;;;;2073594;28;20053;-56
2023/10/02 05:58:32;;;;;;;37.80;17.20;;;;;;;;;;2073445;28;20049;-55
2023/10/02 05:59:43;;;;;;;34.85;16.08;;;;;;;;;;2073704;28;20050;-56
2023/10/02 06:00:45;;;;;;;36.90;16.75;;;;;;;;;;2073775;28;20046;-55
2023/10/02 06:01:46;;;;;;;33.70;15.60;;;;;;;;;;2073478;28;20490;-55
2023/10/02 06:03:21;;;;;;;35.65;16.05;;;;;;;;;;2074099;28;20053;-56
2023/10/02 06:04:14;;;;;;;36.88;17.52;;;;;;;;;;2071445;28;20057;-56
2023/10/02 06:05:17;;;;;;;35.75;17.20;;;;;;;;;;2074255;28;20030;-56
2023/10/02 06:06:18;;;;;;;35.08;16.95;;;;;;;;;;2073581;28;20048;-56
2023/10/02 06:07:40;;;;;;;36.35;16.83;;;;;;;;;;2073844;28;20051;-56
2023/10/02 06:08:41;;;;;;;36.28;15.98;;;;;;;;;;2074068;28;20053;-55
2023/10/02 06:09:44;;;;;;;33.58;15.45;;;;;;;;;;2073816;28;20034;-56
2023/10/02 06:10:45;;;;;;;33.13;16.25;;;;;;;;;;2073954;28;20030;-55
2023/10/02 06:12:05;;;;;;;35.03;15.98;;;;;;;;;;2073751;28;20470;-56
2023/10/02 06:13:06;;;;;;;34.63;16.02;;;;;;;;;;2074209;28;20450;-56
2023/10/02 06:14:09;;;;;;;31.58;15.07;;;;;;;;;;2073593;28;20129;-54
2023/10/02 06:15:43;;;;;;;30.80;15.73;;;;;;;;;;2073676;28;20048;-55
2023/10/02 06:16:30;;;;;;;33.90;15.82;;;;;;;;;;2073518;28;20054;-55
2023/10/02 06:17:32;;;;;;;36.78;15.02;;;;;;;;;;2073270;28;20406;-55
2023/10/02 06:18:32;;;;;;;35.80;16.40;;;;;;;;;;2073805;28;20045;-55
2023/10/02 06:19:42;;;;;;;28.42;14.35;;;;;;;;;;2073926;28;20398;-55
2023/10/02 06:20:57;;;;;;;30.55;15.13;;;;;;;;;;2074115;28;20045;-55
2023/10/02 06:23:19;;;;;;;32.45;15.20;;;;;;;;;;2073575;28;20478;-55
2023/10/02 06:24:21;;;;;;;35.15;15.07;;;;;;;;;;2073878;28;20485;-55
2023/10/02 06:25:21;;;;;;;35.70;17.10;;;;;;;;;;2074094;28;20056;-55
2023/10/02 06:26:29;;;;;;;33.60;16.42;;;;;;;;;;2073557;28;20042;-55
2023/10/02 06:27:41;;;;;;;33.03;17.05;;;;;;;;;;2073750;28;20050;-55
2023/10/02 06:28:43;;;;;;;32.72;15.82;;;;;;;;;;2073528;28;20052;-55
2023/10/02 06:29:44;;;;;;;32.03;15.15;;;;;;;;;;2073574;28;20045;-55
2023/10/02 06:30:47;;;;;;;34.60;15.73;;;;;;;;;;2073343;28;20041;-55
2023/10/02 06:31:51;;;;;;;33.92;16.50;;;;;;;;;;2073915;28;20026;-55
2023/10/02 06:32:54;;;;;;;36.83;16.50;;;;;;;;;;2073866;28;20034;-55
2023/10/02 06:33:57;;;;;;;32.92;16.52;;;;;;;;;;2073819;28;20029;-55
2023/10/02 06:34:57;;;;;;;33.92;16.83;;;;;;;;;;2073695;28;20042;-55
2023/10/02 06:36:00;;;;;;;35.22;17.77;;;;;;;;;;2073882;28;20109;-55
2023/10/02 06:37:07;;;;;;;35.55;16.73;;;;;;;;;;2073350;28;20053;-55
2023/10/02 06:38:15;;;;;;;34.70;15.77;;;;;;;;;;2072569;28;20037;-55